createdAt,value
2019-04-05T00:01:14.497Z,90.72
2019-04-05T00:03:45.662Z,90.83
2019-04-05T00:06:16.147Z,90.86
2019-04-05T00:08:47.479Z,90.86
2019-04-05T00:11:18.877Z,91.13
2019-04-05T00:13:49.358Z,91.22
2019-04-05T00:16:20.076Z,90.95
2019-04-05T00:18:50.511Z,90.73
2019-04-05T00:21:20.989Z,91.02
2019-04-05T00:23:51.719Z,90.77
2019-04-05T00:26:22.144Z,90.74
2019-04-05T00:28:53.015Z,90.75
2019-04-05T00:31:23.511Z,91.07
2019-04-05T00:33:53.941Z,91.57
2019-04-05T00:36:24.422Z,91.25
2019-04-05T00:38:54.856Z,91.26
2019-04-05T00:41:25.294Z,91.42
2019-04-05T00:43:55.784Z,91.10
2019-04-05T00:46:26.226Z,90.82
2019-04-05T00:48:56.667Z,91.10
2019-04-05T00:51:27.494Z,90.88
2019-04-05T00:53:58.238Z,90.68
2019-04-05T00:56:29.016Z,91.11
2019-04-05T00:58:59.878Z,90.71
2019-04-05T01:01:30.414Z,91.32
2019-04-05T01:04:00.874Z,91.28
2019-04-05T01:06:31.470Z,91.21
2019-04-05T01:09:01.916Z,90.55
2019-04-05T01:11:32.794Z,91.77
2019-04-05T01:14:03.706Z,91.72
2019-04-05T01:16:44.905Z,91.43
2019-04-05T01:19:15.861Z,91.33
2019-04-05T01:21:48.799Z,91.36
2019-04-05T01:24:20.967Z,91.62
2019-04-05T01:26:53.669Z,91.65
2019-04-05T01:29:25.022Z,91.17
2019-04-05T01:31:55.543Z,91.14
2019-04-05T01:34:26.342Z,91.04
2019-04-05T01:36:57.276Z,91.41
2019-04-05T01:39:27.884Z,91.12
2019-04-05T01:41:58.780Z,91.33
2019-04-05T01:44:29.215Z,91.09
2019-04-05T01:46:59.989Z,91.25
2019-04-05T01:49:30.483Z,91.61
2019-04-05T01:52:01.029Z,91.42
2019-04-05T01:54:31.789Z,91.66
2019-04-05T01:57:02.740Z,91.39
2019-04-05T01:59:34.669Z,91.51
2019-04-05T02:02:05.741Z,91.51
2019-04-05T02:04:36.346Z,91.70
2019-04-05T02:07:06.788Z,91.51
2019-04-05T02:09:37.718Z,91.40
2019-04-05T02:12:08.468Z,91.54
2019-04-05T02:14:38.906Z,91.66
2019-04-05T02:17:10.378Z,91.87
2019-04-05T02:19:40.988Z,91.93
2019-04-05T02:22:11.421Z,91.79
2019-04-05T02:24:41.933Z,92.41
2019-04-05T02:27:13.368Z,92.30
2019-04-05T02:29:44.535Z,92.46
2019-04-05T02:32:14.970Z,92.22
2019-04-05T02:34:45.770Z,92.48
2019-04-05T02:37:16.759Z,92.64
2019-04-05T02:39:47.519Z,92.49
2019-04-05T02:42:19.374Z,92.47
2019-04-05T02:44:51.986Z,92.45
2019-04-05T02:47:23.861Z,92.49
2019-04-05T02:49:57.548Z,92.93
2019-04-05T02:52:30.388Z,92.63
2019-04-05T02:55:01.574Z,92.51
2019-04-05T02:57:33.228Z,92.71
2019-04-05T03:00:04.542Z,92.26
2019-04-05T03:02:36.687Z,92.52
2019-04-05T03:05:07.210Z,92.86
2019-04-05T03:07:37.805Z,92.66
2019-04-05T03:10:08.604Z,92.46
2019-04-05T03:12:39.338Z,92.81
2019-04-05T03:15:11.689Z,92.84
2019-04-05T03:17:42.279Z,92.07
2019-04-05T03:20:12.812Z,92.38
2019-04-05T03:22:43.661Z,92.12
2019-04-05T03:25:14.334Z,92.30
2019-04-05T03:27:44.874Z,92.51
2019-04-05T03:30:15.425Z,92.49
2019-04-05T03:32:46.607Z,92.66
2019-04-05T03:35:17.536Z,92.28
2019-04-05T03:37:48.191Z,92.72
2019-04-05T03:40:18.872Z,92.71
2019-04-05T03:42:49.512Z,92.31
2019-04-05T03:45:20.825Z,92.15
2019-04-05T03:47:51.609Z,92.62
2019-04-05T03:50:22.046Z,92.44
2019-04-05T03:52:52.591Z,92.05
2019-04-05T03:55:23.711Z,92.43
2019-04-05T03:57:54.147Z,92.11
2019-04-05T04:00:24.851Z,92.60
2019-04-05T04:02:55.467Z,92.86
2019-04-05T04:05:26.111Z,92.73
2019-04-05T04:07:56.655Z,92.39
2019-04-05T04:10:28.460Z,92.52
2019-04-05T04:12:59.338Z,92.21
2019-04-05T04:15:32.088Z,92.55
2019-04-05T04:18:03.579Z,92.50
2019-04-05T04:20:42.349Z,92.92
2019-04-05T04:23:14.035Z,92.71
2019-04-05T04:25:45.375Z,92.79
2019-04-05T04:28:16.309Z,93.49
2019-04-05T04:30:47.018Z,93.22
2019-04-05T04:33:19.629Z,92.88
2019-04-05T04:35:50.770Z,92.85
2019-04-05T04:38:22.136Z,92.45
2019-04-05T04:40:52.781Z,92.50
2019-04-05T04:43:23.724Z,92.30
2019-04-05T04:45:54.934Z,91.95
2019-04-05T04:48:25.387Z,92.35
2019-04-05T04:50:55.932Z,92.51
2019-04-05T04:53:27.043Z,92.13
2019-04-05T04:55:57.967Z,92.50
2019-04-05T04:58:28.505Z,92.53
2019-04-05T05:00:59.301Z,92.35
2019-04-05T05:03:30.258Z,92.22
2019-04-05T05:06:01.377Z,92.07
2019-04-05T05:08:32.087Z,92.37
2019-04-05T05:11:14.011Z,92.46
2019-04-05T05:13:35.277Z,92.26
2019-04-05T05:16:06.963Z,93.26
2019-04-05T05:18:37.797Z,92.84
2019-04-05T05:21:08.233Z,92.68
2019-04-05T05:23:39.621Z,92.88
2019-04-05T05:26:10.690Z,92.72
2019-04-05T05:28:41.234Z,93.08
2019-04-05T05:31:12.086Z,92.89
2019-04-05T05:33:42.715Z,93.15
2019-04-05T05:36:13.405Z,92.96
2019-04-05T05:38:44.657Z,93.21
2019-04-05T05:41:15.097Z,93.23
2019-04-05T05:43:45.823Z,92.96
2019-04-05T05:46:16.325Z,93.01
2019-04-05T05:48:46.868Z,92.81
2019-04-05T05:51:17.296Z,92.63
2019-04-05T05:53:47.947Z,92.42
2019-04-05T05:56:19.278Z,92.51
2019-04-05T05:58:49.713Z,92.49
2019-04-05T06:01:20.190Z,92.73
2019-04-05T06:03:50.641Z,92.76
2019-04-05T06:06:21.106Z,92.67
2019-04-05T06:08:51.828Z,92.56
2019-04-05T06:11:22.656Z,92.34
2019-04-05T06:13:53.090Z,92.68
2019-04-05T06:16:23.565Z,92.28
2019-04-05T06:18:53.996Z,92.55
2019-04-05T06:21:24.428Z,92.76
2019-04-05T06:23:54.921Z,92.29
2019-04-05T06:26:25.358Z,91.91
2019-04-05T06:28:55.790Z,92.23
2019-04-05T06:31:26.273Z,92.08
2019-04-05T06:33:56.712Z,92.28
2019-04-05T06:36:27.156Z,92.46
2019-04-05T06:38:57.642Z,91.80
2019-04-05T06:41:28.072Z,92.53
2019-04-05T06:43:58.859Z,92.66
2019-04-05T06:46:29.700Z,92.62
2019-04-05T06:49:00.133Z,92.44
2019-04-05T06:51:30.568Z,92.99
2019-04-05T06:54:03.359Z,92.91
2019-04-05T06:56:33.526Z,92.33
2019-04-05T06:59:04.447Z,92.40
2019-04-05T07:01:34.999Z,92.87
2019-04-05T07:04:05.701Z,92.27
2019-04-05T07:06:36.166Z,92.90
2019-04-05T07:09:08.035Z,93.26
2019-04-05T07:11:38.625Z,93.18
2019-04-05T07:14:10.036Z,93.65
2019-04-05T07:16:40.864Z,93.32
2019-04-05T07:19:11.298Z,93.57
2019-04-05T07:21:41.738Z,93.75
2019-04-05T07:24:12.216Z,93.62
2019-04-05T07:26:42.649Z,93.77
2019-04-05T07:29:13.086Z,93.76
2019-04-05T07:31:43.568Z,93.58
2019-04-05T07:34:14.001Z,93.29
2019-04-05T07:36:44.749Z,93.60
2019-04-05T07:39:15.221Z,93.17
2019-04-05T07:41:45.657Z,93.82
2019-04-05T07:44:16.096Z,93.40
2019-04-05T07:46:46.822Z,93.50
2019-04-05T07:49:17.298Z,93.44
2019-04-05T07:51:47.732Z,93.34
2019-04-05T07:54:18.204Z,93.35
2019-04-05T07:56:48.636Z,93.67
2019-04-05T07:59:20.908Z,93.79
2019-04-05T08:01:51.325Z,93.55
2019-04-05T08:04:21.765Z,94.32
2019-04-05T08:06:52.398Z,94.10
2019-04-05T08:09:24.444Z,93.67
2019-04-05T08:11:55.785Z,93.47
2019-04-05T08:14:26.961Z,93.71
2019-04-05T08:16:57.440Z,93.07
2019-04-05T08:19:27.891Z,93.41
2019-04-05T08:21:58.342Z,92.59
2019-04-05T08:24:29.102Z,93.10
2019-04-05T08:26:59.921Z,92.20
2019-04-05T08:29:30.824Z,92.81
2019-04-05T08:32:13.634Z,93.15
2019-04-05T08:34:34.958Z,92.87
2019-04-05T08:37:05.464Z,92.94
2019-04-05T08:39:36.303Z,92.62
2019-04-05T08:42:06.883Z,93.03
2019-04-05T08:44:37.368Z,92.39
2019-04-05T08:47:08.310Z,92.52
2019-04-05T08:49:39.828Z,92.24
2019-04-05T08:52:10.293Z,92.21
2019-04-05T08:54:40.796Z,92.15
2019-04-05T08:57:11.235Z,92.24
2019-04-05T08:59:41.677Z,92.49
2019-04-05T09:02:12.218Z,92.19
2019-04-05T09:04:43.761Z,92.01
2019-04-05T09:07:14.203Z,91.83
2019-04-05T09:09:44.714Z,92.08
2019-04-05T09:12:15.183Z,92.17
2019-04-05T09:14:45.613Z,92.49
2019-04-05T09:17:16.461Z,92.57
2019-04-05T09:19:46.918Z,92.31
2019-04-05T09:22:17.357Z,92.09
2019-04-05T09:24:47.844Z,92.21
2019-04-05T09:27:18.589Z,91.68
2019-04-05T09:29:49.021Z,91.75
2019-04-05T09:32:19.540Z,92.33
2019-04-05T09:34:49.943Z,92.21
2019-04-05T09:37:20.739Z,91.97
2019-04-05T09:39:51.504Z,91.96
2019-04-05T09:42:21.935Z,91.90
2019-04-05T09:44:52.662Z,92.05
2019-04-05T09:47:23.675Z,91.93
2019-04-05T09:49:54.107Z,92.73
2019-04-05T09:52:24.537Z,92.04
2019-04-05T09:54:55.018Z,91.72
2019-04-05T09:57:26.135Z,90.86
2019-04-05T09:59:58.130Z,91.45
2019-04-05T10:02:31.666Z,91.37
2019-04-05T10:05:01.252Z,91.48
2019-04-05T10:07:33.553Z,91.61
2019-04-05T10:10:04.260Z,91.47
2019-04-05T10:12:34.761Z,91.96
2019-04-05T10:15:05.865Z,91.53
2019-04-05T10:17:36.306Z,92.04
2019-04-05T10:20:07.917Z,91.75
2019-04-05T10:22:38.407Z,91.85
2019-04-05T10:25:08.886Z,92.05
2019-04-05T10:27:39.426Z,91.71
2019-04-05T10:30:12.164Z,91.75
2019-04-05T10:32:46.050Z,91.58
2019-04-05T10:35:16.643Z,90.86
2019-04-05T10:37:47.442Z,91.01
2019-04-05T10:40:18.581Z,90.83
2019-04-05T10:42:49.073Z,90.87
2019-04-05T10:45:19.617Z,90.62
2019-04-05T10:47:50.058Z,90.67
2019-04-05T10:50:20.755Z,89.92
2019-04-05T10:52:51.200Z,90.68
2019-04-05T10:55:21.800Z,90.26
2019-04-05T10:57:53.786Z,90.65
2019-04-05T11:00:26.190Z,90.56
2019-04-05T11:02:56.664Z,90.12
2019-04-05T11:05:27.148Z,90.26
2019-04-05T11:07:57.591Z,90.77
2019-04-05T11:10:28.035Z,90.74
2019-04-05T11:12:58.569Z,90.13
2019-04-05T11:15:31.019Z,90.60
2019-04-05T11:18:04.417Z,90.88
2019-04-05T11:20:33.690Z,90.91
2019-04-05T11:23:04.222Z,90.38
2019-04-05T11:25:35.018Z,90.86
2019-04-05T11:28:05.595Z,89.89
2019-04-05T11:30:44.728Z,90.44
2019-04-05T11:33:15.346Z,90.23
2019-04-05T11:35:46.096Z,90.61
2019-04-05T11:38:16.684Z,90.40
2019-04-05T11:40:47.847Z,90.36
2019-04-05T11:43:19.858Z,90.46
2019-04-05T11:45:51.595Z,90.19
2019-04-05T11:48:22.469Z,90.45
2019-04-05T11:50:53.241Z,89.44
2019-04-05T11:53:25.759Z,89.63
2019-04-05T11:55:56.274Z,89.63
2019-04-05T11:58:26.716Z,90.41
2019-04-05T12:01:14.229Z,89.96
2019-04-05T12:03:44.666Z,89.55
2019-04-05T12:06:15.572Z,89.97
2019-04-05T12:08:46.241Z,90.18
2019-04-05T12:11:17.109Z,90.24
2019-04-05T12:13:47.849Z,90.04
2019-04-05T12:16:18.357Z,88.68
2019-04-05T12:18:50.216Z,89.06
2019-04-05T12:21:21.158Z,88.80
2019-04-05T12:23:51.719Z,88.45
2019-04-05T12:26:22.485Z,88.64
2019-04-05T12:28:53.317Z,89.32
2019-04-05T12:31:25.741Z,88.88
2019-04-05T12:33:56.270Z,89.07
2019-04-05T12:36:26.717Z,88.57
2019-04-05T12:38:57.243Z,88.64
2019-04-05T12:41:28.650Z,87.73
2019-04-05T12:44:00.154Z,87.48
2019-04-05T12:46:30.707Z,86.96
2019-04-05T12:49:01.521Z,86.53
2019-04-05T12:51:32.041Z,87.03
2019-04-05T12:54:03.192Z,86.92
2019-04-05T12:56:33.719Z,86.25
2019-04-05T12:59:05.609Z,85.72
2019-04-05T13:01:36.165Z,86.11
2019-04-05T13:04:06.645Z,85.99
2019-04-05T13:06:42.136Z,86.52
2019-04-05T13:09:13.934Z,86.43
2019-04-05T13:11:45.617Z,86.98
2019-04-05T13:14:17.167Z,86.16
2019-04-05T13:16:49.486Z,86.97
2019-04-05T13:19:20.192Z,86.63
2019-04-05T13:21:50.633Z,86.90
2019-04-05T13:24:21.473Z,86.64
2019-04-05T13:26:51.926Z,86.99
2019-04-05T13:29:22.365Z,86.62
2019-04-05T13:31:52.852Z,86.56
2019-04-05T13:34:25.593Z,86.48
2019-04-05T13:36:55.443Z,86.43
2019-04-05T13:39:27.546Z,86.21
2019-04-05T13:41:59.459Z,85.47
2019-04-05T13:44:31.912Z,85.33
2019-04-05T13:47:03.007Z,85.03
2019-04-05T13:49:33.473Z,84.22
2019-04-05T13:52:06.536Z,84.99
2019-04-05T13:54:38.347Z,85.23
2019-04-05T13:57:11.410Z,85.39
2019-04-05T13:59:41.369Z,85.27
2019-04-05T14:02:11.817Z,85.21
2019-04-05T14:04:42.737Z,84.88
2019-04-05T14:07:13.206Z,84.37
2019-04-05T14:09:44.044Z,84.36
2019-04-05T14:12:14.525Z,84.39
2019-04-05T14:14:48.021Z,84.55
2019-04-05T14:17:17.264Z,84.60
2019-04-05T14:19:48.753Z,84.41
2019-04-05T14:22:22.251Z,83.79
2019-04-05T14:24:56.576Z,83.02
2019-04-05T14:27:25.024Z,82.35
2019-04-05T14:29:55.467Z,81.79
2019-04-05T14:32:25.981Z,81.89
2019-04-05T14:34:56.714Z,82.14
2019-04-05T14:37:27.169Z,83.15
2019-04-05T14:39:57.683Z,82.84
2019-04-05T14:42:29.702Z,82.79
2019-04-05T14:45:01.167Z,82.63
2019-04-05T14:47:31.608Z,82.27
2019-04-05T14:50:02.059Z,82.89
2019-04-05T14:52:32.578Z,82.21
2019-04-05T14:55:03.830Z,82.07
2019-04-05T14:57:35.630Z,82.56
2019-04-05T15:00:07.823Z,82.67
2019-04-05T15:02:38.394Z,83.25
2019-04-05T15:05:10.174Z,83.34
2019-04-05T15:07:41.032Z,84.58
2019-04-05T15:10:11.675Z,84.03
2019-04-05T15:12:42.113Z,83.95
2019-04-05T15:15:13.798Z,83.41
2019-04-05T15:17:48.132Z,83.81
2019-04-05T15:20:17.225Z,83.52
2019-04-05T15:22:48.839Z,83.83
2019-04-05T15:25:21.615Z,83.78
2019-04-05T15:27:55.387Z,83.87
2019-04-05T15:30:26.523Z,83.96
2019-04-05T15:32:58.853Z,83.76
2019-04-05T15:35:31.095Z,84.29
2019-04-05T15:38:02.349Z,84.42
2019-04-05T15:40:32.759Z,84.53
2019-04-05T15:43:03.628Z,84.54
2019-04-05T15:45:34.176Z,84.64
2019-04-05T15:48:05.037Z,84.42
2019-04-05T15:50:35.552Z,84.11
2019-04-05T15:53:06.873Z,83.94
2019-04-05T15:55:37.362Z,83.76
2019-04-05T15:58:08.234Z,83.98
2019-04-05T16:00:43.816Z,84.31
2019-04-05T16:03:15.001Z,84.56
2019-04-05T16:05:47.207Z,84.97
2019-04-05T16:08:19.820Z,84.81
2019-04-05T16:10:50.741Z,84.38
2019-04-05T16:13:21.293Z,84.30
2019-04-05T16:15:51.798Z,84.31
2019-04-05T16:18:22.334Z,84.47
2019-04-05T16:20:52.786Z,84.72
2019-04-05T16:23:23.564Z,85.34
2019-04-05T16:25:54.114Z,85.18
2019-04-05T16:28:24.579Z,85.51
2019-04-05T16:30:55.077Z,85.36
2019-04-05T16:33:25.808Z,85.60
2019-04-05T16:35:56.265Z,85.94
2019-04-05T16:38:26.749Z,85.59
2019-04-05T16:40:57.185Z,85.52
2019-04-05T16:43:27.635Z,85.51
2019-04-05T16:45:58.118Z,85.79
2019-04-05T16:48:28.654Z,85.81
2019-04-05T16:50:59.092Z,85.79
2019-04-05T16:53:30.243Z,85.98
2019-04-05T16:56:01.075Z,85.98
2019-04-05T16:58:31.513Z,85.61
2019-04-05T17:01:02.167Z,85.89
2019-04-05T17:03:33.638Z,86.02
2019-04-05T17:06:04.082Z,86.45
2019-04-05T17:08:34.586Z,86.97
2019-04-05T17:11:05.266Z,87.17
2019-04-05T17:13:36.026Z,86.86
2019-04-05T17:16:06.912Z,87.05
2019-04-05T17:18:37.355Z,87.09
2019-04-05T17:21:07.799Z,87.20
2019-04-05T17:23:38.278Z,87.37
2019-04-05T17:26:08.725Z,87.28
2019-04-05T17:28:39.602Z,87.31
2019-04-05T17:31:10.093Z,87.18
2019-04-05T17:33:40.945Z,86.85
2019-04-05T17:36:11.410Z,86.88
2019-04-05T17:38:42.008Z,87.07
2019-04-05T17:41:12.745Z,87.31
2019-04-05T17:43:43.555Z,87.36
2019-04-05T17:46:14.197Z,87.35
2019-04-05T17:48:44.758Z,87.78
2019-04-05T17:51:15.261Z,87.58
2019-04-05T17:53:46.224Z,87.67
2019-04-05T17:56:17.497Z,87.92
2019-04-05T17:58:49.178Z,87.68
2019-04-05T18:01:21.708Z,87.85
2019-04-05T18:03:52.347Z,88.09
2019-04-05T18:06:23.502Z,88.13
2019-04-05T18:08:53.997Z,88.02
2019-04-05T18:11:25.385Z,88.07
2019-04-05T18:13:57.953Z,88.20
2019-04-05T18:16:29.508Z,88.45
2019-04-05T18:19:01.168Z,88.29
2019-04-05T18:21:31.654Z,88.55
2019-04-05T18:24:02.540Z,88.39
2019-04-05T18:26:34.533Z,88.57
2019-04-05T18:29:05.852Z,88.99
2019-04-05T18:31:36.337Z,89.00
2019-04-05T18:34:09.064Z,88.71
2019-04-05T18:36:39.910Z,89.01
2019-04-05T18:39:11.668Z,89.09
2019-04-05T18:41:43.911Z,89.00
2019-04-05T18:44:16.553Z,89.10
2019-04-05T18:46:48.578Z,89.42
2019-04-05T18:49:19.729Z,89.54
2019-04-05T18:51:50.828Z,89.71
2019-04-05T18:54:22.020Z,89.62
2019-04-05T18:56:52.561Z,89.58
2019-04-05T18:59:23.376Z,89.42
2019-04-05T19:01:57.522Z,89.54
2019-04-05T19:04:28.011Z,89.37
2019-04-05T19:06:59.798Z,89.54
2019-04-05T19:09:30.272Z,89.65
2019-04-05T19:12:00.778Z,89.70
2019-04-05T19:14:31.602Z,89.32
2019-04-05T19:17:02.061Z,89.50
2019-04-05T19:19:34.094Z,89.60
2019-04-05T19:22:04.558Z,89.69
2019-04-05T19:24:35.028Z,89.36
2019-04-05T19:27:05.613Z,89.43
2019-04-05T19:29:36.066Z,89.45
2019-04-05T19:50:00.849Z,89.49
2019-04-05T19:52:32.509Z,89.19
2019-04-05T19:55:03.344Z,88.82
2019-04-05T19:57:33.786Z,89.52
2019-04-05T20:00:05.028Z,89.49
2019-04-05T20:02:35.865Z,89.37
2019-04-05T20:05:09.036Z,89.49
2019-04-05T20:07:40.195Z,89.39
2019-04-05T20:10:11.205Z,89.54
2019-04-05T20:12:41.668Z,89.55
2019-04-05T20:15:12.233Z,89.72
2019-04-05T20:17:43.584Z,89.84
2019-04-05T20:20:14.598Z,89.38
2019-04-05T20:22:45.054Z,90.42
2019-04-05T20:25:15.649Z,90.61
2019-04-05T20:27:46.119Z,91.73
2019-04-05T20:30:18.167Z,91.44
2019-04-05T20:32:49.072Z,91.78
2019-04-05T20:35:20.121Z,91.85
2019-04-05T20:37:50.616Z,92.32
2019-04-05T20:40:21.414Z,92.09
2019-04-05T20:42:52.249Z,92.28
2019-04-05T20:45:22.911Z,92.42
2019-04-05T20:47:53.730Z,92.25
2019-04-05T20:50:24.166Z,92.59
2019-04-05T20:52:57.475Z,92.55
2019-04-05T20:55:28.266Z,92.75
2019-04-05T20:57:58.921Z,92.74
2019-04-05T21:00:29.358Z,92.68
2019-04-05T21:03:00.210Z,92.22
2019-04-05T21:05:30.680Z,92.48
2019-04-05T21:08:01.130Z,92.92
2019-04-05T21:10:31.669Z,93.24
2019-04-05T21:13:02.836Z,92.98
2019-04-05T21:15:33.386Z,92.96
2019-04-05T21:18:03.890Z,92.98
2019-04-05T21:20:34.673Z,93.15
2019-04-05T21:23:05.146Z,93.54
2019-04-05T21:25:36.020Z,93.61
2019-04-05T21:28:06.465Z,93.66
2019-04-05T21:30:37.236Z,93.33
2019-04-05T21:33:07.999Z,93.43
2019-04-05T21:35:38.453Z,93.39
2019-04-05T21:38:08.911Z,93.60
2019-04-05T21:40:39.400Z,93.42
2019-04-05T21:43:10.177Z,93.45
2019-04-05T21:45:40.634Z,93.50
2019-04-05T21:48:11.140Z,93.30
2019-04-05T21:50:41.876Z,93.18
2019-04-05T21:53:12.715Z,93.40
2019-04-05T21:55:43.339Z,93.55
2019-04-05T21:58:14.130Z,93.48
2019-04-05T22:00:50.268Z,93.20
2019-04-05T22:03:20.690Z,93.24
2019-04-05T22:05:51.131Z,93.24
2019-04-05T22:08:21.639Z,93.31
2019-04-05T22:10:52.485Z,93.32
2019-04-05T22:13:22.925Z,93.03
2019-04-05T22:15:53.436Z,92.94
2019-04-05T22:18:24.590Z,93.27
2019-04-05T22:20:55.698Z,93.21
2019-04-05T22:23:26.542Z,93.19
2019-04-05T22:25:56.977Z,93.11
2019-04-05T22:28:28.423Z,93.35
2019-04-05T22:30:59.410Z,92.95
2019-04-05T22:33:29.851Z,93.16
2019-04-05T22:36:00.631Z,93.46
2019-04-05T22:38:31.506Z,93.12
2019-04-05T22:41:02.306Z,92.65
2019-04-05T22:43:32.750Z,92.94
2019-04-05T22:46:03.235Z,92.94
2019-04-05T22:48:34.006Z,92.83
2019-04-05T22:51:04.459Z,92.60
2019-04-05T22:53:34.951Z,92.61
2019-04-05T22:56:05.398Z,92.84
2019-04-05T22:58:35.840Z,92.37
2019-04-05T23:01:06.671Z,92.79
2019-04-05T23:03:37.113Z,93.08
2019-04-05T23:06:07.552Z,92.96
2019-04-05T23:08:38.061Z,93.22
2019-04-05T23:11:08.501Z,92.86
2019-04-05T23:13:39.929Z,93.42
2019-04-05T23:16:10.430Z,93.45
2019-04-05T23:18:41.213Z,93.76
2019-04-05T23:21:12.286Z,93.47
2019-04-05T23:23:43.656Z,94.28
2019-04-05T23:26:14.104Z,93.99
2019-04-05T23:28:44.539Z,94.27
2019-04-05T23:31:15.034Z,94.32
2019-04-05T23:33:45.504Z,94.30
2019-04-05T23:36:15.942Z,94.10
2019-04-05T23:38:46.421Z,93.98
2019-04-05T23:41:16.861Z,93.94
2019-04-05T23:43:47.299Z,93.87
2019-04-05T23:46:17.794Z,93.62
2019-04-05T23:48:48.237Z,93.91
2019-04-05T23:51:18.752Z,93.85
2019-04-05T23:53:49.244Z,93.42
2019-04-05T23:56:19.694Z,93.71
2019-04-05T23:58:50.754Z,93.46
